Time;durP1;ratioP1;P1;durP2;ratioP2;P2;SDS_P1;SDS_P2;PMS_P1;PMS_P2;Temp;Humidity;BMP_temperature;BMP_pressure;BME280_temperature;BME280_humidity;BME280_pressure;Samples;Min_cycle;Max_cycle;Signal;HPM_P1;HPM_P2
2022/05/14 00:00:58;;;;;;;1.65;0.82;;;20.40;64.20;;;;;;5106879;27;45237;-78
2022/05/14 00:03:26;;;;;;;1.15;0.60;;;20.50;64.30;;;;;;5105083;27;45368;-78
2022/05/14 00:05:53;;;;;;;1.05;0.70;;;20.50;64.20;;;;;;5106425;27;45329;-77
2022/05/14 00:08:22;;;;;;;2.03;0.90;;;20.50;64.30;;;;;;5106194;27;45341;-78
2022/05/14 00:13:46;;;;;;;2.40;0.88;;;20.50;64.30;;;;;;5078681;27;45216;-78
2022/05/14 00:16:14;;;;;;;1.15;0.88;;;20.50;64.20;;;;;;5102771;27;45337;-78
2022/05/14 00:18:41;;;;;;;1.75;0.70;;;20.50;65.20;;;;;;5102634;27;45321;-78
2022/05/14 00:21:09;;;;;;;1.50;0.70;;;20.50;64.20;;;;;;5107706;27;46258;-78
2022/05/14 00:23:36;;;;;;;1.40;0.98;;;20.50;64.20;;;;;;5107379;27;45640;-78
2022/05/14 00:26:03;;;;;;;1.55;0.80;;;20.50;64.00;;;;;;5106557;27;45334;-78
2022/05/14 00:28:30;;;;;;;1.50;0.85;;;20.50;64.20;;;;;;5104205;27;45359;-78
2022/05/14 00:30:59;;;;;;;0.65;0.60;;;20.50;64.20;;;;;;5107378;27;47914;-78
2022/05/14 00:33:25;;;;;;;1.80;0.80;;;20.50;64.10;;;;;;5106352;27;45216;-78
2022/05/14 00:35:54;;;;;;;1.65;0.90;;;20.50;64.10;;;;;;5108080;27;45294;-78
2022/05/14 00:38:20;;;;;;;1.20;0.80;;;20.50;64.00;;;;;;5097840;27;45209;-78
2022/05/14 00:40:54;;;;;;;1.73;0.88;;;20.50;64.00;;;;;;5106972;27;46614;-78
2022/05/14 00:43:21;;;;;;;1.27;0.80;;;20.50;64.10;;;;;;5097374;27;45557;-77
2022/05/14 00:45:54;;;;;;;1.60;0.65;;;20.50;64.10;;;;;;5107161;27;45207;-78
2022/05/14 00:48:23;;;;;;;1.17;0.65;;;20.40;64.00;;;;;;5097429;27;45345;-78
2022/05/14 00:50:55;;;;;;;1.88;0.82;;;20.40;64.00;;;;;;5107697;27;45307;-78
2022/05/14 00:53:26;;;;;;;1.10;0.60;;;20.40;64.00;;;;;;5103687;27;45179;-78
2022/05/14 00:55:57;;;;;;;0.93;0.70;;;20.40;64.00;;;;;;5105799;27;45305;-78
2022/05/14 00:58:32;;;;;;;1.27;0.80;;;20.40;64.00;;;;;;5098144;27;45315;-78
2022/05/14 01:00:59;;;;;;;0.80;0.60;;;20.40;63.90;;;;;;5102276;27;47110;-78
2022/05/14 01:03:27;;;;;;;1.38;0.73;;;20.40;63.90;;;;;;5106883;27;45464;-78
2022/05/14 01:05:56;;;;;;;1.13;0.68;;;20.40;63.80;;;;;;5112557;27;45194;-78
2022/05/14 01:08:23;;;;;;;2.38;0.70;;;20.50;63.90;;;;;;5099484;27;45117;-78
2022/05/14 01:10:52;;;;;;;1.20;0.70;;;20.50;63.80;;;;;;5104740;27;46172;-78
2022/05/14 01:13:19;;;;;;;1.55;0.80;;;20.50;63.70;;;;;;5112814;27;45227;-78
2022/05/14 01:15:49;;;;;;;1.50;0.75;;;20.40;63.60;;;;;;5107990;27;45272;-78
2022/05/14 01:18:18;;;;;;;0.93;0.70;;;20.40;63.60;;;;;;5106638;27;45610;-78
2022/05/14 01:20:51;;;;;;;3.10;0.68;;;20.40;63.80;;;;;;5099613;27;46474;-78
2022/05/14 01:23:26;;;;;;;1.55;0.70;;;20.40;63.60;;;;;;5105653;27;45594;-78
2022/05/14 01:26:30;;;;;;;1.02;0.60;;;20.40;64.70;;;;;;5108118;27;45308;-78
2022/05/14 01:28:58;;;;;;;1.65;0.75;;;20.40;63.80;;;;;;5099958;27;45489;-78
2022/05/14 01:31:27;;;;;;;1.25;0.90;;;20.40;63.90;;;;;;5106436;27;46280;-77
2022/05/14 01:33:54;;;;;;;1.83;0.80;;;20.40;63.90;;;;;;5106463;27;45121;-78
2022/05/14 01:36:21;;;;;;;1.20;0.60;;;20.40;63.90;;;;;;5098070;27;45210;-78
2022/05/14 01:38:48;;;;;;;0.68;0.60;;;20.40;63.80;;;;;;5105342;27;45550;-78
2022/05/14 01:41:16;;;;;;;0.82;0.70;;;20.40;63.90;;;;;;5105988;27;45175;-78
2022/05/14 01:43:43;;;;;;;1.35;0.70;;;20.40;63.80;;;;;;5106194;27;45212;-78
2022/05/14 01:46:09;;;;;;;1.13;0.73;;;20.40;63.90;;;;;;5113843;27;45489;-78
2022/05/14 01:48:36;;;;;;;1.33;0.70;;;20.40;63.60;;;;;;5106317;27;45318;-78
2022/05/14 01:51:03;;;;;;;1.42;0.60;;;20.40;63.60;;;;;;5106574;27;45317;-78
2022/05/14 01:53:30;;;;;;;1.63;0.80;;;20.40;64.50;;;;;;5108387;27;45164;-77
2022/05/14 01:55:57;;;;;;;4.45;1.00;;;20.40;63.40;;;;;;5104827;27;46214;-78
2022/05/14 01:58:37;;;;;;;1.45;0.90;;;20.40;63.40;;;;;;5104765;27;45343;-78
2022/05/14 02:01:09;;;;;;;1.98;0.65;;;20.40;63.40;;;;;;5106461;27;46462;-78
2022/05/14 02:03:36;;;;;;;1.10;0.80;;;20.40;63.30;;;;;;5104270;27;45509;-78
2022/05/14 02:06:03;;;;;;;3.08;1.30;;;20.40;63.30;;;;;;5110743;27;45207;-78
2022/05/14 02:08:30;;;;;;;1.13;0.80;;;20.40;63.40;;;;;;5105955;27;45195;-78
2022/05/14 02:10:57;;;;;;;3.85;1.00;;;20.40;63.40;;;;;;5104639;27;47618;-78
2022/05/14 02:13:26;;;;;;;1.65;0.60;;;20.40;63.50;;;;;;5109130;27;45153;-78
2022/05/14 02:15:53;;;;;;;2.00;0.95;;;20.40;63.50;;;;;;5110499;27;45236;-78
2022/05/14 02:18:20;;;;;;;2.17;0.70;;;20.40;63.50;;;;;;5103869;27;45643;-78
2022/05/14 02:20:47;;;;;;;2.22;0.80;;;20.40;63.50;;;;;;5107351;27;47422;-77
2022/05/14 02:23:14;;;;;;;1.42;0.80;;;20.40;63.50;;;;;;5110350;27;45117;-78
2022/05/14 02:25:41;;;;;;;1.20;0.80;;;20.40;63.30;;;;;;5106769;27;45319;-78
2022/05/14 02:28:08;;;;;;;1.65;1.00;;;20.40;63.50;;;;;;5104444;27;45332;-78
2022/05/14 02:30:36;;;;;;;1.33;0.70;;;20.40;63.50;;;;;;5102066;27;46478;-77
2022/05/14 02:33:03;;;;;;;2.78;0.82;;;20.40;63.40;;;;;;5108574;27;45144;-78
2022/05/14 02:35:30;;;;;;;2.50;0.63;;;20.40;63.40;;;;;;5109580;27;45189;-78
2022/05/14 02:37:57;;;;;;;1.30;0.80;;;20.40;63.40;;;;;;5111435;27;45307;-78
2022/05/14 02:40:24;;;;;;;1.63;0.90;;;20.40;63.20;;;;;;5113524;27;45400;-78
2022/05/14 02:42:52;;;;;;;1.17;0.80;;;20.40;63.20;;;;;;5109997;27;45292;-78
2022/05/14 02:45:19;;;;;;;1.17;0.60;;;20.40;63.00;;;;;;5106651;27;45195;-78
2022/05/14 02:47:47;;;;;;;2.53;0.70;;;20.40;62.90;;;;;;5109614;27;45477;-78
2022/05/14 02:50:14;;;;;;;1.08;0.60;;;20.40;62.90;;;;;;5106993;27;48867;-78
2022/05/14 02:52:41;;;;;;;1.25;0.60;;;20.40;62.90;;;;;;5106814;27;45353;-78
2022/05/14 02:55:09;;;;;;;2.63;1.00;;;20.40;62.80;;;;;;5106236;27;45250;-78
2022/05/14 02:57:36;;;;;;;1.92;0.88;;;20.40;62.70;;;;;;5112881;27;45215;-78
2022/05/14 03:00:07;;;;;;;1.25;0.60;;;20.40;62.70;;;;;;5109032;27;45510;-78
2022/05/14 03:02:33;;;;;;;2.40;0.80;;;20.40;62.70;;;;;;5100040;27;45271;-78
2022/05/14 03:05:02;;;;;;;1.52;0.80;;;20.40;62.60;;;;;;5103106;27;45256;-78
2022/05/14 03:07:29;;;;;;;1.70;0.80;;;20.40;62.70;;;;;;5109031;27;45531;-78
2022/05/14 03:09:55;;;;;;;1.42;0.60;;;20.40;62.70;;;;;;5108506;27;46136;-77
2022/05/14 03:12:24;;;;;;;3.72;0.70;;;20.40;62.90;;;;;;5108406;27;45220;-78
2022/05/14 03:14:51;;;;;;;1.92;1.08;;;20.40;62.80;;;;;;5109059;27;45246;-78
2022/05/14 03:17:19;;;;;;;3.00;0.90;;;20.40;62.80;;;;;;5113753;27;45188;-78
2022/05/14 03:19:46;;;;;;;1.73;0.70;;;20.40;62.80;;;;;;5100598;27;46278;-78
2022/05/14 03:22:14;;;;;;;2.70;0.80;;;20.40;62.70;;;;;;5103618;27;45250;-78
2022/05/14 03:24:41;;;;;;;1.80;0.73;;;20.40;62.60;;;;;;5111182;27;46165;-78
2022/05/14 03:27:08;;;;;;;2.05;0.50;;;20.40;62.80;;;;;;5105324;27;45490;-78
2022/05/14 03:29:36;;;;;;;1.63;0.80;;;20.30;62.70;;;;;;5107491;27;47834;-78
2022/05/14 03:32:03;;;;;;;2.28;0.90;;;20.40;62.70;;;;;;5108624;27;45270;-78
2022/05/14 03:34:30;;;;;;;1.88;0.80;;;20.40;62.80;;;;;;5107145;27;45097;-78
2022/05/14 03:37:00;;;;;;;1.38;0.73;;;20.40;62.70;;;;;;5101303;27;45299;-78
2022/05/14 03:39:28;;;;;;;0.43;0.40;;;20.40;62.70;;;;;;5104268;27;46170;-79
2022/05/14 03:41:55;;;;;;;1.17;0.55;;;20.40;62.50;;;;;;5106199;27;45982;-78
2022/05/14 03:44:21;;;;;;;1.92;0.63;;;20.40;62.60;;;;;;5106567;27;45101;-78
2022/05/14 03:46:48;;;;;;;0.85;0.60;;;20.40;62.50;;;;;;5110667;27;45238;-78
2022/05/14 03:49:15;;;;;;;2.13;0.70;;;20.40;62.40;;;;;;5107606;27;45222;-78
2022/05/14 03:51:42;;;;;;;1.90;0.80;;;20.40;62.30;;;;;;5105552;27;45369;-78
2022/05/14 03:54:09;;;;;;;0.65;0.52;;;20.40;62.30;;;;;;5107439;27;45273;-78
2022/05/14 03:56:39;;;;;;;0.95;0.60;;;20.40;62.20;;;;;;5103644;27;45324;-79
2022/05/14 03:59:06;;;;;;;0.80;0.60;;;20.40;62.10;;;;;;5104352;27;47552;-78
2022/05/14 04:01:33;;;;;;;0.95;0.80;;;20.40;62.20;;;;;;5108258;27;45215;-78
2022/05/14 04:04:01;;;;;;;0.70;0.47;;;20.40;62.30;;;;;;5108970;27;45279;-78
2022/05/14 04:06:28;;;;;;;1.15;0.65;;;20.40;62.40;;;;;;5113850;27;45452;-78
2022/05/14 04:08:54;;;;;;;0.98;0.60;;;20.40;62.40;;;;;;5106234;27;46191;-78
2022/05/14 04:11:21;;;;;;;1.50;0.80;;;20.30;62.20;;;;;;5099030;27;45322;-78
2022/05/14 04:13:50;;;;;;;0.88;0.70;;;20.40;62.30;;;;;;5103179;27;46681;-78
2022/05/14 04:16:17;;;;;;;1.35;0.68;;;20.40;62.30;;;;;;5106508;27;45127;-78
2022/05/14 04:18:43;;;;;;;1.40;0.73;;;20.40;62.30;;;;;;5098129;27;46005;-78
2022/05/14 04:21:11;;;;;;;1.27;0.70;;;20.40;62.20;;;;;;5110091;27;45552;-78
2022/05/14 04:23:38;;;;;;;1.42;0.65;;;20.30;62.20;;;;;;5105791;27;45529;-78
2022/05/14 04:26:05;;;;;;;0.85;0.60;;;20.40;62.10;;;;;;5106690;27;45379;-79
2022/05/14 04:28:31;;;;;;;2.05;0.73;;;20.40;62.20;;;;;;5095946;27;47966;-78
2022/05/14 04:30:59;;;;;;;1.02;0.50;;;20.30;62.20;;;;;;5108315;27;45155;-78
2022/05/14 04:33:28;;;;;;;2.03;0.70;;;20.30;63.20;;;;;;5105747;27;45271;-78
2022/05/14 04:35:55;;;;;;;0.82;0.47;;;20.40;62.10;;;;;;5105991;27;45364;-78
2022/05/14 04:38:22;;;;;;;1.25;0.77;;;20.40;62.00;;;;;;5104043;27;47946;-78
2022/05/14 04:40:48;;;;;;;1.45;0.80;;;20.40;61.90;;;;;;5108544;27;45827;-78
2022/05/14 04:43:15;;;;;;;1.13;0.60;;;20.40;61.70;;;;;;5106091;27;45241;-78
2022/05/14 04:45:43;;;;;;;2.78;0.73;;;20.40;61.50;;;;;;5099127;27;45277;-78
2022/05/14 04:48:12;;;;;;;1.17;0.50;;;20.40;61.40;;;;;;5106920;27;47486;-78
2022/05/14 04:50:39;;;;;;;1.10;0.65;;;20.40;61.30;;;;;;5106442;27;45109;-78
2022/05/14 04:53:06;;;;;;;1.88;0.70;;;20.40;61.30;;;;;;5107392;27;45244;-78
2022/05/14 04:55:33;;;;;;;1.10;0.68;;;20.40;61.40;;;;;;5108530;27;45693;-78
2022/05/14 04:58:00;;;;;;;1.15;0.60;;;20.40;61.30;;;;;;5104845;27;46323;-78
2022/05/14 05:00:28;;;;;;;1.40;0.52;;;20.40;61.30;;;;;;5104972;27;45645;-78
2022/05/14 05:05:40;;;;;;;1.27;0.60;;;20.40;61.40;;;;;;5103991;27;45258;-79
2022/05/14 05:08:07;;;;;;;1.33;0.68;;;20.40;61.50;;;;;;5102599;27;46144;-79
2022/05/14 05:10:34;;;;;;;0.65;0.50;;;20.40;61.50;;;;;;5106391;27;45220;-78
2022/05/14 05:13:01;;;;;;;0.60;0.47;;;20.30;61.70;;;;;;5099448;27;45189;-79
2022/05/14 05:15:28;;;;;;;1.13;0.63;;;20.30;61.60;;;;;;5107717;27;45303;-78
2022/05/14 05:17:55;;;;;;;1.35;0.52;;;20.40;61.80;;;;;;5103912;27;46711;-79
2022/05/14 05:20:22;;;;;;;2.65;0.55;;;20.30;61.70;;;;;;5103151;27;45517;-79
2022/05/14 05:22:51;;;;;;;1.58;0.43;;;20.30;61.70;;;;;;5103458;27;45336;-78
2022/05/14 05:25:18;;;;;;;3.00;1.00;;;20.30;61.80;;;;;;5106084;27;46230;-79
2022/05/14 05:27:44;;;;;;;1.30;0.57;;;20.30;61.90;;;;;;5103516;27;45475;-79
2022/05/14 05:30:12;;;;;;;1.52;0.50;;;20.30;61.80;;;;;;5104521;27;45516;-79
2022/05/14 05:32:39;;;;;;;1.33;0.63;;;20.30;61.80;;;;;;5104718;27;45360;-78
2022/05/14 05:35:06;;;;;;;2.15;0.93;;;20.40;61.90;;;;;;5105348;27;45237;-79
2022/05/14 05:37:34;;;;;;;0.88;0.40;;;20.40;61.70;;;;;;5093598;27;48487;-78
2022/05/14 05:40:02;;;;;;;2.45;0.68;;;20.40;61.90;;;;;;5104714;27;45147;-79
2022/05/14 05:42:29;;;;;;;1.40;0.50;;;20.40;61.50;;;;;;5106697;27;45246;-78
2022/05/14 05:44:56;;;;;;;3.33;0.65;;;20.40;61.50;;;;;;5106680;27;45451;-78
2022/05/14 05:47:23;;;;;;;0.90;0.60;;;20.40;61.50;;;;;;5108534;27;45469;-78
2022/05/14 05:49:50;;;;;;;1.40;0.80;;;20.40;61.50;;;;;;5103007;27;45345;-78
2022/05/14 05:52:17;;;;;;;1.20;0.57;;;20.40;61.40;;;;;;5108077;27;45323;-78
2022/05/14 05:57:35;;;;;;;2.08;0.50;;;20.40;61.50;;;;;;5095544;27;45303;-78
2022/05/14 06:00:04;;;;;;;1.17;0.60;;;20.40;61.30;;;;;;5109219;27;45367;-78
2022/05/14 06:02:31;;;;;;;2.20;0.65;;;20.40;61.40;;;;;;5107406;27;45349;-78
2022/05/14 06:04:58;;;;;;;1.08;0.70;;;20.40;61.40;;;;;;5108221;27;45495;-78
2022/05/14 06:07:25;;;;;;;0.88;0.50;;;20.40;61.50;;;;;;5108302;27;47966;-78
2022/05/14 06:09:51;;;;;;;2.90;0.68;;;20.40;61.50;;;;;;5107808;27;45607;-79
2022/05/14 06:12:18;;;;;;;1.05;0.57;;;20.40;61.50;;;;;;5107647;27;45274;-78
2022/05/14 06:14:47;;;;;;;2.35;0.68;;;20.40;61.50;;;;;;5105863;27;45411;-78
2022/05/14 06:17:14;;;;;;;0.88;0.60;;;20.40;61.60;;;;;;5103063;27;46450;-79
2022/05/14 06:19:41;;;;;;;1.67;0.60;;;20.40;61.60;;;;;;5103923;27;46073;-79
2022/05/14 06:22:08;;;;;;;2.58;0.77;;;20.40;61.70;;;;;;5110222;27;45655;-79
2022/05/14 06:24:37;;;;;;;1.63;0.65;;;20.40;61.70;;;;;;5109824;27;45366;-78
2022/05/14 06:27:05;;;;;;;4.93;1.10;;;20.40;61.80;;;;;;5106642;27;45977;-79
2022/05/14 06:29:32;;;;;;;1.60;0.80;;;20.40;61.90;;;;;;5107804;27;46256;-79
2022/05/14 06:32:00;;;;;;;1.33;0.63;;;20.40;61.90;;;;;;5108906;27;45199;-79
2022/05/14 06:34:27;;;;;;;1.67;0.60;;;20.40;61.70;;;;;;5109901;27;45287;-79
2022/05/14 06:36:54;;;;;;;1.83;0.75;;;20.40;61.40;;;;;;5110869;27;47032;-78
2022/05/14 06:39:21;;;;;;;1.63;0.80;;;20.40;61.10;;;;;;5108396;27;45243;-79
2022/05/14 06:41:48;;;;;;;2.50;0.70;;;20.40;61.00;;;;;;5107456;27;45638;-79
2022/05/14 06:44:15;;;;;;;2.75;0.80;;;20.40;61.00;;;;;;5106094;27;45590;-79
2022/05/14 06:46:42;;;;;;;1.50;0.65;;;20.40;61.00;;;;;;5107649;27;46415;-79
2022/05/14 06:49:12;;;;;;;1.60;0.70;;;20.40;60.90;;;;;;5105284;27;45250;-79
2022/05/14 06:51:40;;;;;;;0.80;0.60;;;20.40;60.80;;;;;;5104398;27;45257;-78
2022/05/14 06:54:09;;;;;;;1.92;0.65;;;20.40;61.20;;;;;;5106361;27;45270;-78
2022/05/14 06:56:41;;;;;;;3.05;0.82;;;20.40;61.30;;;;;;5111241;27;45238;-79
2022/05/14 06:59:08;;;;;;;1.70;0.80;;;20.50;61.40;;;;;;5107851;27;45394;-79
2022/05/14 07:01:37;;;;;;;1.77;0.80;;;20.50;61.20;;;;;;5097325;27;45375;-78
2022/05/14 07:06:54;;;;;;;1.80;0.57;;;20.50;61.50;;;;;;5107136;27;45316;-79
2022/05/14 07:09:23;;;;;;;2.55;0.90;;;20.50;61.70;;;;;;5104816;27;45661;-78
2022/05/14 07:11:52;;;;;;;1.67;0.70;;;20.50;61.90;;;;;;5109920;27;45277;-78
2022/05/14 07:14:20;;;;;;;1.30;0.70;;;20.50;62.10;;;;;;5108478;27;45452;-78
2022/05/14 07:16:50;;;;;;;3.55;0.70;;;20.50;62.30;;;;;;5097121;27;45440;-79
2022/05/14 07:19:17;;;;;;;1.48;0.80;;;20.50;62.40;;;;;;5107655;27;45152;-78
2022/05/14 07:21:45;;;;;;;2.20;0.90;;;20.50;62.60;;;;;;5103629;27;45423;-78
2022/05/14 07:24:16;;;;;;;0.77;0.50;;;20.50;62.80;;;;;;5103671;27;45312;-78
2022/05/14 07:26:43;;;;;;;2.85;1.00;;;20.40;62.90;;;;;;5102073;27;46305;-79
2022/05/14 07:29:13;;;;;;;1.13;0.75;;;20.40;62.90;;;;;;5104866;27;45239;-78
2022/05/14 07:31:40;;;;;;;2.60;0.70;;;20.50;63.10;;;;;;5110121;27;45374;-78
2022/05/14 07:34:08;;;;;;;2.65;0.75;;;20.50;63.10;;;;;;5107320;27;45325;-78
2022/05/14 07:36:40;;;;;;;2.75;0.70;;;20.50;63.20;;;;;;5104895;27;47415;-78
2022/05/14 07:39:07;;;;;;;2.17;0.88;;;20.50;63.30;;;;;;5104526;27;45932;-78
2022/05/14 07:41:37;;;;;;;1.67;0.60;;;20.50;63.30;;;;;;5106030;27;45140;-79
2022/05/14 07:44:07;;;;;;;2.28;0.73;;;20.50;63.20;;;;;;5107186;27;45205;-78
2022/05/14 07:46:36;;;;;;;1.00;0.60;;;20.60;63.30;;;;;;5100048;27;46290;-78
2022/05/14 07:49:08;;;;;;;1.35;0.80;;;20.60;64.30;;;;;;5108797;27;45218;-78
2022/05/14 07:51:36;;;;;;;1.50;0.70;;;20.60;63.30;;;;;;5105185;27;45298;-78
2022/05/14 07:54:03;;;;;;;1.25;0.65;;;20.60;63.30;;;;;;5105182;27;45508;-78
2022/05/14 07:56:30;;;;;;;1.67;0.73;;;20.60;63.30;;;;;;5105092;27;45549;-78
2022/05/14 07:58:58;;;;;;;4.07;0.80;;;20.60;63.30;;;;;;5106168;27;45538;-78
2022/05/14 08:01:25;;;;;;;3.55;0.70;;;20.60;63.40;;;;;;5099677;27;45617;-78
2022/05/14 08:03:52;;;;;;;2.47;0.80;;;20.60;63.40;;;;;;5108452;27;45210;-78
2022/05/14 08:06:19;;;;;;;2.13;0.90;;;20.60;63.50;;;;;;5112022;27;46537;-78
2022/05/14 08:08:46;;;;;;;5.70;0.90;;;20.60;63.60;;;;;;5105424;27;45245;-78
2022/05/14 08:11:13;;;;;;;2.03;0.85;;;20.60;63.70;;;;;;5106624;27;45298;-77
2022/05/14 08:13:40;;;;;;;2.40;0.88;;;20.60;63.60;;;;;;5107447;27;45553;-78
2022/05/14 08:16:08;;;;;;;1.98;0.70;;;20.60;63.60;;;;;;5108140;27;47609;-78
2022/05/14 08:18:35;;;;;;;3.58;1.20;;;20.60;63.60;;;;;;5105503;27;45307;-78
2022/05/14 08:26:27;;;;;;;2.67;0.85;;;20.60;63.80;;;;;;5106900;27;45679;-78
2022/05/14 08:28:54;;;;;;;1.63;0.80;;;20.60;63.90;;;;;;5104639;27;45311;-79
2022/05/14 08:31:22;;;;;;;2.55;1.08;;;20.60;63.90;;;;;;5107597;27;45381;-78
2022/05/14 08:33:49;;;;;;;3.80;0.90;;;20.60;64.10;;;;;;5106751;27;45283;-78
2022/05/14 08:36:16;;;;;;;2.47;1.00;;;20.60;64.10;;;;;;5107201;27;45502;-79
2022/05/14 08:38:42;;;;;;;2.00;0.93;;;20.60;64.10;;;;;;5105485;27;45288;-79
2022/05/14 08:41:10;;;;;;;2.35;0.80;;;20.60;64.20;;;;;;5101892;27;45266;-78
2022/05/14 08:43:42;;;;;;;1.50;0.70;;;20.60;64.30;;;;;;5097267;27;45303;-79
2022/05/14 08:46:10;;;;;;;2.08;0.93;;;20.60;64.30;;;;;;5103507;27;46714;-78
2022/05/14 08:48:39;;;;;;;0.75;0.57;;;20.60;64.40;;;;;;5104691;27;45520;-78
2022/05/14 08:51:12;;;;;;;2.58;0.90;;;20.60;64.30;;;;;;5107228;27;45307;-78
2022/05/14 08:53:40;;;;;;;2.45;1.05;;;20.70;64.40;;;;;;5094001;27;45140;-78
2022/05/14 08:56:27;;;;;;;1.75;0.88;;;20.60;64.40;;;;;;5105136;27;45338;-78
2022/05/14 08:59:35;;;;;;;1.50;0.73;;;20.60;64.50;;;;;;5103325;27;45335;-78
2022/05/14 09:02:14;;;;;;;2.17;0.88;;;20.60;64.50;;;;;;5104416;27;45195;-79
2022/05/14 09:04:43;;;;;;;1.35;0.65;;;20.60;64.70;;;;;;5107621;27;45331;-79
2022/05/14 09:07:10;;;;;;;1.55;0.80;;;20.60;64.70;;;;;;5121891;27;47157;-78
2022/05/14 09:09:48;;;;;;;2.83;0.90;;;20.60;64.80;;;;;;5126352;27;45210;-79
2022/05/14 09:12:18;;;;;;;2.22;1.05;;;20.60;64.90;;;;;;5128459;27;45177;-79
2022/05/14 09:14:45;;;;;;;1.67;0.85;;;20.60;65.10;;;;;;5105919;27;45282;-78
2022/05/14 09:17:14;;;;;;;1.45;0.80;;;20.60;65.20;;;;;;5105309;27;47455;-79
2022/05/14 09:19:44;;;;;;;1.80;0.80;;;20.60;65.10;;;;;;5107292;27;45312;-79
2022/05/14 09:22:17;;;;;;;1.63;0.70;;;20.60;65.10;;;;;;5111062;27;45271;-78
2022/05/14 09:24:47;;;;;;;1.80;0.85;;;20.60;65.20;;;;;;5110238;27;45334;-79
2022/05/14 09:27:22;;;;;;;3.00;1.00;;;20.60;65.30;;;;;;5109994;27;48066;-78
2022/05/14 09:29:53;;;;;;;1.00;0.70;;;20.60;65.30;;;;;;5108689;27;45340;-78
2022/05/14 09:32:33;;;;;;;1.77;0.80;;;20.60;65.40;;;;;;5111032;27;45279;-78
2022/05/14 09:35:14;;;;;;;2.33;0.88;;;20.60;66.50;;;;;;5109965;27;46288;-78
2022/05/14 09:37:42;;;;;;;2.40;0.90;;;20.60;65.40;;;;;;5109999;27;46415;-78
2022/05/14 09:40:14;;;;;;;1.30;0.80;;;20.60;65.30;;;;;;5109211;27;45202;-79
2022/05/14 09:42:45;;;;;;;1.48;0.77;;;20.60;65.50;;;;;;5110907;27;45230;-79
2022/05/14 09:45:30;;;;;;;2.10;0.90;;;20.60;65.60;;;;;;5109177;27;45383;-78
2022/05/14 09:47:57;;;;;;;2.10;0.70;;;20.60;65.60;;;;;;5111241;27;47918;-79
2022/05/14 09:50:31;;;;;;;1.83;0.90;;;20.60;65.40;;;;;;5110577;27;45152;-79
2022/05/14 09:53:01;;;;;;;1.33;0.80;;;20.60;65.40;;;;;;5109671;27;45281;-79
2022/05/14 09:55:59;;;;;;;1.52;0.88;;;20.60;65.40;;;;;;5111409;27;45203;-79
2022/05/14 09:58:38;;;;;;;1.65;0.80;;;20.60;65.50;;;;;;5107032;27;47444;-78
2022/05/14 10:01:10;;;;;;;1.50;0.70;;;20.60;65.60;;;;;;5105705;27;45137;-79
2022/05/14 10:03:50;;;;;;;2.47;1.10;;;20.60;65.60;;;;;;5109307;27;45631;-79
2022/05/14 10:06:29;;;;;;;1.83;0.73;;;20.60;65.80;;;;;;5118896;27;45425;-79
2022/05/14 10:09:09;;;;;;;2.83;1.00;;;20.60;65.90;;;;;;5125835;27;45377;-79
2022/05/14 10:11:38;;;;;;;2.80;0.88;;;20.60;65.80;;;;;;5110903;27;45267;-79
2022/05/14 10:14:28;;;;;;;2.13;0.60;;;20.50;65.90;;;;;;5109303;27;45156;-78
2022/05/14 10:17:07;;;;;;;2.03;0.80;;;20.50;65.90;;;;;;5109840;27;45219;-78
2022/05/14 10:20:04;;;;;;;1.85;0.73;;;20.50;65.90;;;;;;5109802;27;45245;-79
2022/05/14 10:28:20;;;;;;;1.08;0.57;;;20.60;66.00;;;;;;5099425;27;45314;-78
2022/05/14 10:30:53;;;;;;;1.15;0.80;;;20.60;66.00;;;;;;5100022;27;46225;-79
2022/05/14 10:33:24;;;;;;;1.80;1.02;;;20.60;66.10;;;;;;5103865;27;45731;-79
2022/05/14 10:35:58;;;;;;;2.72;0.73;;;20.60;66.40;;;;;;5105413;27;45294;-78
2022/05/14 10:38:30;;;;;;;0.98;0.70;;;20.60;66.70;;;;;;5098254;27;45425;-78
2022/05/14 10:41:02;;;;;;;2.15;0.88;;;20.60;66.60;;;;;;5103466;27;45593;-79
2022/05/14 10:43:37;;;;;;;3.42;1.10;;;20.60;66.50;;;;;;5095379;27;46362;-79
2022/05/14 10:46:08;;;;;;;1.92;0.88;;;20.60;66.50;;;;;;5105774;27;45260;-78
2022/05/14 10:48:42;;;;;;;3.35;0.90;;;20.60;66.40;;;;;;5104065;27;45291;-77
2022/05/14 10:51:12;;;;;;;2.53;1.00;;;20.60;66.40;;;;;;5106257;27;46470;-79
2022/05/14 10:53:43;;;;;;;2.85;0.90;;;20.60;66.40;;;;;;5101709;27;45362;-78
2022/05/14 10:56:14;;;;;;;2.75;0.90;;;20.60;66.60;;;;;;5106775;27;45395;-78
2022/05/14 10:58:54;;;;;;;2.53;0.95;;;20.60;66.70;;;;;;5101349;27;45552;-78
2022/05/14 11:01:31;;;;;;;3.47;0.85;;;20.50;66.70;;;;;;5108376;27;45333;-78
2022/05/14 11:04:00;;;;;;;1.83;0.98;;;20.50;66.80;;;;;;5104958;27;45252;-78
2022/05/14 11:06:32;;;;;;;2.67;0.93;;;20.60;66.90;;;;;;5118834;27;45241;-78
2022/05/14 11:09:01;;;;;;;2.95;0.85;;;20.50;66.90;;;;;;5108758;27;45580;-78
2022/05/14 11:11:30;;;;;;;2.85;1.00;;;20.60;66.90;;;;;;5111187;27;45307;-78
2022/05/14 11:14:03;;;;;;;2.08;0.90;;;20.60;66.90;;;;;;5107546;27;45231;-78
2022/05/14 11:16:40;;;;;;;2.15;0.90;;;20.60;67.00;;;;;;5109145;27;45314;-78
2022/05/14 11:19:07;;;;;;;2.03;1.02;;;20.60;67.00;;;;;;5106253;27;45495;-79
2022/05/14 11:21:38;;;;;;;2.92;1.00;;;20.60;67.00;;;;;;5108517;27;46597;-79
2022/05/14 11:24:07;;;;;;;2.88;0.88;;;20.60;66.90;;;;;;5107276;27;45204;-78
2022/05/14 11:26:45;;;;;;;2.58;1.00;;;20.60;67.80;;;;;;5106972;27;45254;-78
2022/05/14 11:29:16;;;;;;;2.10;0.88;;;20.60;66.90;;;;;;5105225;27;45380;-78
2022/05/14 11:31:54;;;;;;;2.90;0.98;;;20.60;66.80;;;;;;5107310;27;47258;-78
2022/05/14 11:34:23;;;;;;;1.52;0.65;;;20.60;66.90;;;;;;5094530;27;45260;-78
2022/05/14 11:36:53;;;;;;;3.25;0.85;;;20.60;66.70;;;;;;5094109;27;45267;-78
2022/05/14 11:39:30;;;;;;;1.70;1.00;;;20.60;66.60;;;;;;5093208;27;45468;-78
2022/05/14 11:42:11;;;;;;;1.70;0.88;;;20.60;66.60;;;;;;5103557;27;45508;-78
2022/05/14 11:44:45;;;;;;;0.95;0.75;;;20.60;66.40;;;;;;5105404;27;45227;-78
2022/05/14 11:47:51;;;;;;;3.88;0.88;;;20.60;66.40;;;;;;5109433;27;45251;-78
2022/05/14 11:50:23;;;;;;;1.30;0.75;;;20.60;66.40;;;;;;5104390;27;45821;-78
2022/05/14 11:53:00;;;;;;;1.40;0.90;;;20.60;66.30;;;;;;5107403;27;45480;-79
2022/05/14 11:55:35;;;;;;;1.92;0.98;;;20.60;66.30;;;;;;5104624;27;45193;-78
2022/05/14 11:58:08;;;;;;;2.17;0.82;;;20.60;66.40;;;;;;5103630;27;45242;-78
2022/05/14 12:00:36;;;;;;;1.90;1.10;;;20.60;66.40;;;;;;5106815;27;45526;-78
2022/05/14 12:03:12;;;;;;;1.52;0.73;;;20.60;66.50;;;;;;5102613;27;45479;-78
2022/05/14 12:05:46;;;;;;;1.40;0.90;;;20.60;66.50;;;;;;5108701;27;45692;-78
2022/05/14 12:08:53;;;;;;;2.65;1.10;;;20.60;66.50;;;;;;5106965;27;45191;-78
2022/05/14 12:11:29;;;;;;;2.13;0.90;;;20.60;66.60;;;;;;5108204;27;45198;-78
2022/05/14 12:14:04;;;;;;;1.63;0.80;;;20.60;66.60;;;;;;5110417;27;47130;-78
2022/05/14 12:16:35;;;;;;;1.65;0.90;;;20.60;66.40;;;;;;5096811;27;45856;-78
2022/05/14 12:19:03;;;;;;;2.33;0.80;;;20.60;66.40;;;;;;5105601;27;45400;-78
2022/05/14 12:21:30;;;;;;;1.95;0.88;;;20.60;66.40;;;;;;5105395;27;45195;-79
2022/05/14 12:23:57;;;;;;;2.20;0.82;;;20.60;66.30;;;;;;5103765;27;48306;-78
2022/05/14 12:26:28;;;;;;;1.60;0.95;;;20.60;66.30;;;;;;5103946;27;45271;-78
2022/05/14 12:28:56;;;;;;;3.55;1.05;;;20.60;66.30;;;;;;5111940;27;45221;-78
2022/05/14 12:34:13;;;;;;;1.85;1.00;;;20.60;66.40;;;;;;5105099;27;45741;-79
2022/05/14 12:36:44;;;;;;;0.98;0.70;;;20.60;66.30;;;;;;5107480;27;45244;-79
2022/05/14 12:39:15;;;;;;;1.70;0.60;;;20.70;66.40;;;;;;5109948;27;45389;-79
2022/05/14 12:41:48;;;;;;;1.55;0.93;;;20.60;66.40;;;;;;5110465;27;45275;-79
2022/05/14 12:44:24;;;;;;;1.80;0.68;;;20.60;66.40;;;;;;5101805;27;45467;-78
2022/05/14 12:46:54;;;;;;;1.60;1.00;;;20.60;66.30;;;;;;5102817;27;45765;-78
2022/05/14 12:49:23;;;;;;;2.05;0.80;;;20.60;66.30;;;;;;5104517;27;45260;-79
2022/05/14 12:51:52;;;;;;;0.95;0.80;;;20.60;66.40;;;;;;5105979;27;45105;-78
2022/05/14 12:54:23;;;;;;;1.13;0.85;;;20.60;66.40;;;;;;5106901;27;45368;-79
2022/05/14 12:56:53;;;;;;;2.60;1.00;;;20.60;66.50;;;;;;5101742;27;45203;-79
2022/05/14 12:59:20;;;;;;;2.47;0.98;;;20.60;66.50;;;;;;5095638;27;45317;-79
2022/05/14 13:01:52;;;;;;;1.15;0.80;;;20.60;66.60;;;;;;5106719;27;45228;-78
2022/05/14 13:04:23;;;;;;;2.33;1.02;;;20.60;66.70;;;;;;5106913;27;45379;-79
2022/05/14 13:06:50;;;;;;;2.50;1.00;;;20.60;66.80;;;;;;5095884;27;45303;-79
2022/05/14 13:09:22;;;;;;;3.42;1.00;;;20.60;66.80;;;;;;5102997;27;45376;-78
2022/05/14 13:11:52;;;;;;;1.75;0.85;;;20.60;66.80;;;;;;5101792;27;45330;-78
2022/05/14 13:14:23;;;;;;;2.47;0.98;;;20.60;66.80;;;;;;5100472;27;47234;-78
2022/05/14 13:16:56;;;;;;;2.35;1.00;;;20.70;66.80;;;;;;5099235;27;45370;-79
2022/05/14 13:19:31;;;;;;;1.85;1.20;;;20.70;66.70;;;;;;5096875;27;45355;-79
2022/05/14 13:21:58;;;;;;;2.25;0.90;;;20.70;66.40;;;;;;5104243;27;45487;-79
2022/05/14 13:24:28;;;;;;;1.33;0.85;;;20.70;66.20;;;;;;5104319;27;46281;-79
2022/05/14 13:26:58;;;;;;;2.72;0.93;;;20.70;66.20;;;;;;5105763;27;45849;-79